sensor_id;sensor_type;location;lat;lon;timestamp;temperature;humidity
12329;DHT22;6230;52.390;10.256;2022-11-11T00:02:02;12.90;67.00
12329;DHT22;6230;52.390;10.256;2022-11-11T00:04:28;12.90;67.00
12329;DHT22;6230;52.390;10.256;2022-11-11T00:06:53;12.80;66.90
12329;DHT22;6230;52.390;10.256;2022-11-11T00:09:19;12.80;67.10
12329;DHT22;6230;52.390;10.256;2022-11-11T00:11:44;12.80;67.10
12329;DHT22;6230;52.390;10.256;2022-11-11T00:14:10;12.80;67.10
12329;DHT22;6230;52.390;10.256;2022-11-11T00:16:35;12.80;67.20
12329;DHT22;6230;52.390;10.256;2022-11-11T00:19:19;12.80;67.20
12329;DHT22;6230;52.390;10.256;2022-11-11T00:22:03;12.80;67.20
12329;DHT22;6230;52.390;10.256;2022-11-11T00:24:47;12.80;67.20
12329;DHT22;6230;52.390;10.256;2022-11-11T00:27:31;12.70;67.20
12329;DHT22;6230;52.390;10.256;2022-11-11T00:29:56;12.70;67.30
12329;DHT22;6230;52.390;10.256;2022-11-11T00:32:22;12.70;67.40
12329;DHT22;6230;52.390;10.256;2022-11-11T00:34:48;12.70;67.40
12329;DHT22;6230;52.390;10.256;2022-11-11T00:37:33;12.70;67.50
12329;DHT22;6230;52.390;10.256;2022-11-11T00:39:59;12.70;67.40
12329;DHT22;6230;52.390;10.256;2022-11-11T00:42:25;12.70;67.50
12329;DHT22;6230;52.390;10.256;2022-11-11T00:44:50;12.70;67.60
12329;DHT22;6230;52.390;10.256;2022-11-11T00:47:16;12.60;67.60
12329;DHT22;6230;52.390;10.256;2022-11-11T00:50:01;12.60;67.60
12329;DHT22;6230;52.390;10.256;2022-11-11T00:52:45;12.60;67.70
12329;DHT22;6230;52.390;10.256;2022-11-11T00:55:12;12.60;67.80
12329;DHT22;6230;52.390;10.256;2022-11-11T00:57:37;12.60;67.80
12329;DHT22;6230;52.390;10.256;2022-11-11T01:00:03;12.60;67.90
12329;DHT22;6230;52.390;10.256;2022-11-11T01:02:29;12.60;67.80
12329;DHT22;6230;52.390;10.256;2022-11-11T01:04:55;12.60;67.80
12329;DHT22;6230;52.390;10.256;2022-11-11T01:07:20;12.60;67.80
12329;DHT22;6230;52.390;10.256;2022-11-11T01:09:46;12.50;67.70
12329;DHT22;6230;52.390;10.256;2022-11-11T01:12:11;12.50;67.80
12329;DHT22;6230;52.390;10.256;2022-11-11T01:14:37;12.50;67.70
12329;DHT22;6230;52.390;10.256;2022-11-11T01:17:03;12.60;67.90
12329;DHT22;6230;52.390;10.256;2022-11-11T01:19:30;12.60;67.80
12329;DHT22;6230;52.390;10.256;2022-11-11T01:21:56;12.60;67.70
12329;DHT22;6230;52.390;10.256;2022-11-11T01:24:22;12.60;67.80
12329;DHT22;6230;52.390;10.256;2022-11-11T01:26:48;12.60;67.80
12329;DHT22;6230;52.390;10.256;2022-11-11T01:29:13;12.60;67.70
12329;DHT22;6230;52.390;10.256;2022-11-11T01:31:39;12.60;67.70
12329;DHT22;6230;52.390;10.256;2022-11-11T01:34:04;12.60;67.70
12329;DHT22;6230;52.390;10.256;2022-11-11T01:36:30;12.50;67.70
12329;DHT22;6230;52.390;10.256;2022-11-11T01:38:57;12.50;67.70
12329;DHT22;6230;52.390;10.256;2022-11-11T01:41:32;12.50;67.80
12329;DHT22;6230;52.390;10.256;2022-11-11T01:49:26;12.40;67.90
12329;DHT22;6230;52.390;10.256;2022-11-11T01:52:09;12.40;67.90
12329;DHT22;6230;52.390;10.256;2022-11-11T01:57:36;12.30;68.00
12329;DHT22;6230;52.390;10.256;2022-11-11T02:00:11;12.20;68.20
12329;DHT22;6230;52.390;10.256;2022-11-11T02:02:57;12.20;68.10
12329;DHT22;6230;52.390;10.256;2022-11-11T02:05:25;12.20;68.20
12329;DHT22;6230;52.390;10.256;2022-11-11T02:08:11;12.20;68.10
12329;DHT22;6230;52.390;10.256;2022-11-11T02:10:40;12.20;68.20
12329;DHT22;6230;52.390;10.256;2022-11-11T02:13:14;12.20;68.30
12329;DHT22;6230;52.390;10.256;2022-11-11T02:15:58;12.10;68.30
12329;DHT22;6230;52.390;10.256;2022-11-11T02:18:24;12.10;68.40
12329;DHT22;6230;52.390;10.256;2022-11-11T02:20:51;12.10;68.50
12329;DHT22;6230;52.390;10.256;2022-11-11T02:23:40;12.10;68.50
12329;DHT22;6230;52.390;10.256;2022-11-11T02:26:09;12.10;68.70
12329;DHT22;6230;52.390;10.256;2022-11-11T02:28:36;12.10;68.50
12329;DHT22;6230;52.390;10.256;2022-11-11T02:31:02;12.10;68.50
12329;DHT22;6230;52.390;10.256;2022-11-11T02:33:28;12.10;68.40
12329;DHT22;6230;52.390;10.256;2022-11-11T02:35:55;12.10;68.50
12329;DHT22;6230;52.390;10.256;2022-11-11T02:38:24;12.10;68.50
12329;DHT22;6230;52.390;10.256;2022-11-11T02:40:50;12.10;68.50
12329;DHT22;6230;52.390;10.256;2022-11-11T02:43:34;12.00;68.50
12329;DHT22;6230;52.390;10.256;2022-11-11T02:46:02;12.00;68.50
12329;DHT22;6230;52.390;10.256;2022-11-11T02:48:28;12.00;68.60
12329;DHT22;6230;52.390;10.256;2022-11-11T02:50:54;12.00;68.50
12329;DHT22;6230;52.390;10.256;2022-11-11T02:53:21;12.00;68.60
12329;DHT22;6230;52.390;10.256;2022-11-11T02:55:46;12.00;68.50
12329;DHT22;6230;52.390;10.256;2022-11-11T02:58:13;12.00;68.40
12329;DHT22;6230;52.390;10.256;2022-11-11T03:00:39;12.00;68.50
12329;DHT22;6230;52.390;10.256;2022-11-11T03:03:05;12.00;68.60
12329;DHT22;6230;52.390;10.256;2022-11-11T03:05:30;11.90;68.60
12329;DHT22;6230;52.390;10.256;2022-11-11T03:07:56;11.90;68.70
12329;DHT22;6230;52.390;10.256;2022-11-11T03:10:21;11.90;68.80
12329;DHT22;6230;52.390;10.256;2022-11-11T03:12:47;11.80;68.80
12329;DHT22;6230;52.390;10.256;2022-11-11T03:15:13;11.80;68.90
12329;DHT22;6230;52.390;10.256;2022-11-11T03:17:38;11.80;69.00
12329;DHT22;6230;52.390;10.256;2022-11-11T03:20:09;11.80;69.00
12329;DHT22;6230;52.390;10.256;2022-11-11T03:23:12;11.80;69.20
12329;DHT22;6230;52.390;10.256;2022-11-11T03:25:43;11.70;69.20
12329;DHT22;6230;52.390;10.256;2022-11-11T03:28:14;11.70;69.20
12329;DHT22;6230;52.390;10.256;2022-11-11T03:30:42;11.70;69.40
12329;DHT22;6230;52.390;10.256;2022-11-11T03:33:08;11.70;69.40
12329;DHT22;6230;52.390;10.256;2022-11-11T03:35:34;11.70;69.40
12329;DHT22;6230;52.390;10.256;2022-11-11T03:38:01;11.70;69.50
12329;DHT22;6230;52.390;10.256;2022-11-11T03:40:46;11.70;69.50
12329;DHT22;6230;52.390;10.256;2022-11-11T03:43:13;11.80;69.40
12329;DHT22;6230;52.390;10.256;2022-11-11T03:45:40;11.80;69.50
12329;DHT22;6230;52.390;10.256;2022-11-11T03:48:06;11.80;69.50
12329;DHT22;6230;52.390;10.256;2022-11-11T03:50:31;11.80;69.50
12329;DHT22;6230;52.390;10.256;2022-11-11T03:52:57;11.80;69.60
12329;DHT22;6230;52.390;10.256;2022-11-11T03:55:23;11.80;69.60
12329;DHT22;6230;52.390;10.256;2022-11-11T03:57:48;11.80;69.60
12329;DHT22;6230;52.390;10.256;2022-11-11T04:00:20;11.80;69.60
12329;DHT22;6230;52.390;10.256;2022-11-11T04:02:46;11.80;69.60
12329;DHT22;6230;52.390;10.256;2022-11-11T04:05:30;11.80;69.60
12329;DHT22;6230;52.390;10.256;2022-11-11T04:08:16;11.90;69.50
12329;DHT22;6230;52.390;10.256;2022-11-11T04:11:05;11.90;69.50
12329;DHT22;6230;52.390;10.256;2022-11-11T04:13:32;11.90;69.40
12329;DHT22;6230;52.390;10.256;2022-11-11T04:16:16;11.90;69.50
12329;DHT22;6230;52.390;10.256;2022-11-11T04:18:42;11.90;69.30
12329;DHT22;6230;52.390;10.256;2022-11-11T04:21:26;11.90;69.30
12329;DHT22;6230;52.390;10.256;2022-11-11T04:24:10;11.90;69.20
12329;DHT22;6230;52.390;10.256;2022-11-11T04:26:56;11.90;69.20
12329;DHT22;6230;52.390;10.256;2022-11-11T04:29:22;11.90;69.20
12329;DHT22;6230;52.390;10.256;2022-11-11T04:32:11;11.90;69.30
12329;DHT22;6230;52.390;10.256;2022-11-11T04:34:58;11.90;69.40
12329;DHT22;6230;52.390;10.256;2022-11-11T04:37:25;11.90;69.10
12329;DHT22;6230;52.390;10.256;2022-11-11T04:39:51;11.90;69.20
12329;DHT22;6230;52.390;10.256;2022-11-11T04:42:35;11.90;69.20
12329;DHT22;6230;52.390;10.256;2022-11-11T04:45:01;11.90;69.20
12329;DHT22;6230;52.390;10.256;2022-11-11T04:50:29;11.80;69.20
12329;DHT22;6230;52.390;10.256;2022-11-11T04:52:54;11.80;69.20
12329;DHT22;6230;52.390;10.256;2022-11-11T04:55:20;11.80;69.20
12329;DHT22;6230;52.390;10.256;2022-11-11T04:58:05;11.80;69.30
12329;DHT22;6230;52.390;10.256;2022-11-11T05:00:31;11.80;69.30
12329;DHT22;6230;52.390;10.256;2022-11-11T05:02:57;11.80;69.20
12329;DHT22;6230;52.390;10.256;2022-11-11T05:05:46;11.80;69.20
12329;DHT22;6230;52.390;10.256;2022-11-11T05:08:31;11.90;69.10
12329;DHT22;6230;52.390;10.256;2022-11-11T05:11:16;11.90;68.90
12329;DHT22;6230;52.390;10.256;2022-11-11T05:13:42;11.90;68.80
12329;DHT22;6230;52.390;10.256;2022-11-11T05:16:29;11.90;68.80
12329;DHT22;6230;52.390;10.256;2022-11-11T05:19:15;11.90;68.80
12329;DHT22;6230;52.390;10.256;2022-11-11T05:22:14;11.90;68.80
12329;DHT22;6230;52.390;10.256;2022-11-11T05:24:40;11.80;68.90
12329;DHT22;6230;52.390;10.256;2022-11-11T05:27:25;11.80;68.90
12329;DHT22;6230;52.390;10.256;2022-11-11T05:29:51;11.80;68.90
12329;DHT22;6230;52.390;10.256;2022-11-11T05:32:18;11.80;68.90
12329;DHT22;6230;52.390;10.256;2022-11-11T05:34:44;11.80;68.90
12329;DHT22;6230;52.390;10.256;2022-11-11T05:37:10;11.80;68.90
12329;DHT22;6230;52.390;10.256;2022-11-11T05:39:35;11.80;69.00
12329;DHT22;6230;52.390;10.256;2022-11-11T05:42:01;11.70;68.90
12329;DHT22;6230;52.390;10.256;2022-11-11T05:44:27;11.70;68.90
12329;DHT22;6230;52.390;10.256;2022-11-11T05:46:52;11.70;69.00
12329;DHT22;6230;52.390;10.256;2022-11-11T05:49:18;11.70;69.10
12329;DHT22;6230;52.390;10.256;2022-11-11T05:51:44;11.70;69.10
12329;DHT22;6230;52.390;10.256;2022-11-11T05:54:10;11.60;69.10
12329;DHT22;6230;52.390;10.256;2022-11-11T05:56:36;11.60;69.10
12329;DHT22;6230;52.390;10.256;2022-11-11T05:59:02;11.60;69.20
12329;DHT22;6230;52.390;10.256;2022-11-11T06:01:28;11.60;69.20
12329;DHT22;6230;52.390;10.256;2022-11-11T06:03:54;11.60;69.20
12329;DHT22;6230;52.390;10.256;2022-11-11T06:06:19;11.60;69.20
12329;DHT22;6230;52.390;10.256;2022-11-11T06:08:45;11.60;69.20
12329;DHT22;6230;52.390;10.256;2022-11-11T06:11:10;11.60;69.30
12329;DHT22;6230;52.390;10.256;2022-11-11T06:13:36;11.50;69.20
12329;DHT22;6230;52.390;10.256;2022-11-11T06:16:02;11.50;69.20
12329;DHT22;6230;52.390;10.256;2022-11-11T06:18:28;11.50;69.20
12329;DHT22;6230;52.390;10.256;2022-11-11T06:20:54;11.50;69.20
12329;DHT22;6230;52.390;10.256;2022-11-11T06:23:21;11.50;69.20
12329;DHT22;6230;52.390;10.256;2022-11-11T06:25:47;11.50;69.70
12329;DHT22;6230;52.390;10.256;2022-11-11T06:28:31;11.50;69.30
12329;DHT22;6230;52.390;10.256;2022-11-11T06:30:57;11.50;69.20
12329;DHT22;6230;52.390;10.256;2022-11-11T06:33:22;11.40;69.40
12329;DHT22;6230;52.390;10.256;2022-11-11T06:35:48;11.30;69.40
12329;DHT22;6230;52.390;10.256;2022-11-11T06:38:14;11.40;69.60
12329;DHT22;6230;52.390;10.256;2022-11-11T06:40:41;11.30;69.40
12329;DHT22;6230;52.390;10.256;2022-11-11T06:43:07;11.30;69.50
12329;DHT22;6230;52.390;10.256;2022-11-11T06:45:33;11.30;69.50
12329;DHT22;6230;52.390;10.256;2022-11-11T06:48:00;11.20;69.50
12329;DHT22;6230;52.390;10.256;2022-11-11T06:50:26;11.20;69.70
12329;DHT22;6230;52.390;10.256;2022-11-11T06:52:53;11.20;69.70
12329;DHT22;6230;52.390;10.256;2022-11-11T06:55:19;11.20;69.80
12329;DHT22;6230;52.390;10.256;2022-11-11T06:57:45;11.10;69.90
12329;DHT22;6230;52.390;10.256;2022-11-11T07:00:11;11.10;70.00
12329;DHT22;6230;52.390;10.256;2022-11-11T07:02:37;11.10;70.80
12329;DHT22;6230;52.390;10.256;2022-11-11T07:05:02;11.10;70.00
12329;DHT22;6230;52.390;10.256;2022-11-11T07:07:28;11.10;70.10
12329;DHT22;6230;52.390;10.256;2022-11-11T07:09:54;11.10;70.10
12329;DHT22;6230;52.390;10.256;2022-11-11T07:12:20;11.10;70.10
12329;DHT22;6230;52.390;10.256;2022-11-11T07:14:46;11.20;70.10
12329;DHT22;6230;52.390;10.256;2022-11-11T07:17:12;11.10;70.00
12329;DHT22;6230;52.390;10.256;2022-11-11T07:19:37;11.10;70.10
12329;DHT22;6230;52.390;10.256;2022-11-11T07:22:03;11.10;70.20
12329;DHT22;6230;52.390;10.256;2022-11-11T07:24:29;11.20;70.30
12329;DHT22;6230;52.390;10.256;2022-11-11T07:26:55;11.20;70.30
12329;DHT22;6230;52.390;10.256;2022-11-11T07:29:21;11.20;70.20
12329;DHT22;6230;52.390;10.256;2022-11-11T07:31:47;11.20;70.20
12329;DHT22;6230;52.390;10.256;2022-11-11T07:34:12;11.30;70.20
12329;DHT22;6230;52.390;10.256;2022-11-11T07:36:38;11.30;70.20
12329;DHT22;6230;52.390;10.256;2022-11-11T07:39:03;11.30;70.20
12329;DHT22;6230;52.390;10.256;2022-11-11T07:41:29;11.30;70.30
12329;DHT22;6230;52.390;10.256;2022-11-11T07:43:54;11.30;70.30
12329;DHT22;6230;52.390;10.256;2022-11-11T07:46:20;11.30;70.30
12329;DHT22;6230;52.390;10.256;2022-11-11T07:48:45;11.30;70.30
12329;DHT22;6230;52.390;10.256;2022-11-11T07:51:11;11.40;70.40
12329;DHT22;6230;52.390;10.256;2022-11-11T07:53:37;11.40;70.30
12329;DHT22;6230;52.390;10.256;2022-11-11T07:56:02;11.50;70.30
12329;DHT22;6230;52.390;10.256;2022-11-11T07:58:28;11.50;70.30
12329;DHT22;6230;52.390;10.256;2022-11-11T08:00:53;11.50;70.30
12329;DHT22;6230;52.390;10.256;2022-11-11T08:03:19;11.60;70.30
12329;DHT22;6230;52.390;10.256;2022-11-11T08:05:44;11.60;70.30
12329;DHT22;6230;52.390;10.256;2022-11-11T08:08:10;11.70;70.40
12329;DHT22;6230;52.390;10.256;2022-11-11T08:10:36;11.70;70.30
12329;DHT22;6230;52.390;10.256;2022-11-11T08:13:02;11.70;70.30
12329;DHT22;6230;52.390;10.256;2022-11-11T08:15:46;11.70;70.30
12329;DHT22;6230;52.390;10.256;2022-11-11T08:18:13;11.70;70.30
12329;DHT22;6230;52.390;10.256;2022-11-11T08:20:38;11.80;70.40
12329;DHT22;6230;52.390;10.256;2022-11-11T08:23:04;11.80;70.40
12329;DHT22;6230;52.390;10.256;2022-11-11T08:25:34;11.80;70.50
12329;DHT22;6230;52.390;10.256;2022-11-11T08:28:02;11.80;70.50
12329;DHT22;6230;52.390;10.256;2022-11-11T08:30:28;11.90;70.50
12329;DHT22;6230;52.390;10.256;2022-11-11T08:35:23;11.90;70.50
12329;DHT22;6230;52.390;10.256;2022-11-11T08:37:48;11.90;70.40
12329;DHT22;6230;52.390;10.256;2022-11-11T08:40:15;12.00;70.50
12329;DHT22;6230;52.390;10.256;2022-11-11T08:42:40;12.00;70.50
12329;DHT22;6230;52.390;10.256;2022-11-11T08:45:07;12.10;70.50
12329;DHT22;6230;52.390;10.256;2022-11-11T08:47:34;12.10;70.40
12329;DHT22;6230;52.390;10.256;2022-11-11T08:50:00;12.20;70.40
12329;DHT22;6230;52.390;10.256;2022-11-11T08:52:25;12.20;70.30
12329;DHT22;6230;52.390;10.256;2022-11-11T08:54:51;12.30;70.30
12329;DHT22;6230;52.390;10.256;2022-11-11T08:57:16;12.30;70.20
12329;DHT22;6230;52.390;10.256;2022-11-11T08:59:42;12.40;70.20
12329;DHT22;6230;52.390;10.256;2022-11-11T09:02:12;12.50;70.20
12329;DHT22;6230;52.390;10.256;2022-11-11T09:04:38;12.50;70.20
12329;DHT22;6230;52.390;10.256;2022-11-11T09:07:05;12.50;70.10
12329;DHT22;6230;52.390;10.256;2022-11-11T09:09:31;12.60;70.10
12329;DHT22;6230;52.390;10.256;2022-11-11T09:11:56;12.70;70.10
12329;DHT22;6230;52.390;10.256;2022-11-11T09:14:22;12.70;70.00
12329;DHT22;6230;52.390;10.256;2022-11-11T09:16:48;12.80;70.00
12329;DHT22;6230;52.390;10.256;2022-11-11T09:19:13;12.90;70.00
12329;DHT22;6230;52.390;10.256;2022-11-11T09:21:39;12.90;69.80
12329;DHT22;6230;52.390;10.256;2022-11-11T09:24:04;13.00;69.80
12329;DHT22;6230;52.390;10.256;2022-11-11T09:26:30;13.10;69.80
12329;DHT22;6230;52.390;10.256;2022-11-11T09:28:55;13.10;69.70
12329;DHT22;6230;52.390;10.256;2022-11-11T09:31:21;13.20;69.70
12329;DHT22;6230;52.390;10.256;2022-11-11T09:33:49;13.30;69.70
12329;DHT22;6230;52.390;10.256;2022-11-11T09:36:14;13.40;69.70
12329;DHT22;6230;52.390;10.256;2022-11-11T09:38:40;13.60;69.60
12329;DHT22;6230;52.390;10.256;2022-11-11T09:41:21;13.70;69.40
12329;DHT22;6230;52.390;10.256;2022-11-11T09:43:59;13.90;69.40
12329;DHT22;6230;52.390;10.256;2022-11-11T09:46:34;14.20;69.40
12329;DHT22;6230;52.390;10.256;2022-11-11T09:49:21;14.60;69.10
12329;DHT22;6230;52.390;10.256;2022-11-11T09:52:20;15.00;68.90
12329;DHT22;6230;52.390;10.256;2022-11-11T09:54:56;15.40;68.40
12329;DHT22;6230;52.390;10.256;2022-11-11T09:57:37;15.80;67.90
12329;DHT22;6230;52.390;10.256;2022-11-11T10:00:25;16.10;66.80
12329;DHT22;6230;52.390;10.256;2022-11-11T10:02:54;16.40;66.10
12329;DHT22;6230;52.390;10.256;2022-11-11T10:05:26;16.60;65.80
12329;DHT22;6230;52.390;10.256;2022-11-11T10:08:10;16.70;64.70
12329;DHT22;6230;52.390;10.256;2022-11-11T10:10:47;16.90;63.90
12329;DHT22;6230;52.390;10.256;2022-11-11T10:13:16;17.00;63.50
12329;DHT22;6230;52.390;10.256;2022-11-11T10:16:02;17.10;63.10
12329;DHT22;6230;52.390;10.256;2022-11-11T10:18:36;17.30;62.10
12329;DHT22;6230;52.390;10.256;2022-11-11T10:21:11;17.30;62.30
12329;DHT22;6230;52.390;10.256;2022-11-11T10:23:41;17.50;62.00
12329;DHT22;6230;52.390;10.256;2022-11-11T10:28:44;17.70;61.20
12329;DHT22;6230;52.390;10.256;2022-11-11T10:31:16;17.90;61.20
12329;DHT22;6230;52.390;10.256;2022-11-11T10:36:17;18.20;60.80
12329;DHT22;6230;52.390;10.256;2022-11-11T10:38:52;18.30;59.30
12329;DHT22;6230;52.390;10.256;2022-11-11T10:41:35;18.40;58.70
12329;DHT22;6230;52.390;10.256;2022-11-11T10:44:21;18.50;58.70
12329;DHT22;6230;52.390;10.256;2022-11-11T10:49:56;18.60;58.20
12329;DHT22;6230;52.390;10.256;2022-11-11T10:52:55;18.70;58.10
12329;DHT22;6230;52.390;10.256;2022-11-11T10:55:24;19.00;57.90
12329;DHT22;6230;52.390;10.256;2022-11-11T10:57:56;19.00;57.60
12329;DHT22;6230;52.390;10.256;2022-11-11T11:00:24;19.20;57.10
12329;DHT22;6230;52.390;10.256;2022-11-11T11:05:48;19.30;56.70
12329;DHT22;6230;52.390;10.256;2022-11-11T11:08:33;19.50;56.00
12329;DHT22;6230;52.390;10.256;2022-11-11T11:11:04;19.50;55.70
12329;DHT22;6230;52.390;10.256;2022-11-11T11:13:34;19.50;56.00
12329;DHT22;6230;52.390;10.256;2022-11-11T11:16:08;19.60;55.80
12329;DHT22;6230;52.390;10.256;2022-11-11T11:18:35;19.80;55.50
12329;DHT22;6230;52.390;10.256;2022-11-11T11:21:03;19.90;55.80
12329;DHT22;6230;52.390;10.256;2022-11-11T11:23:40;20.00;54.90
12329;DHT22;6230;52.390;10.256;2022-11-11T11:26:10;20.20;54.10
12329;DHT22;6230;52.390;10.256;2022-11-11T11:28:57;20.20;54.20
12329;DHT22;6230;52.390;10.256;2022-11-11T11:31:35;20.40;53.50
12329;DHT22;6230;52.390;10.256;2022-11-11T11:34:01;20.40;53.40
12329;DHT22;6230;52.390;10.256;2022-11-11T11:36:27;20.50;53.40
12329;DHT22;6230;52.390;10.256;2022-11-11T11:38:53;20.50;52.80
12329;DHT22;6230;52.390;10.256;2022-11-11T11:41:51;20.50;52.40
12329;DHT22;6230;52.390;10.256;2022-11-11T11:47:02;20.30;52.10
12329;DHT22;6230;52.390;10.256;2022-11-11T11:51:01;20.20;52.40
12329;DHT22;6230;52.390;10.256;2022-11-11T11:55:59;20.30;52.10
12329;DHT22;6230;52.390;10.256;2022-11-11T11:58:52;20.40;51.90
12329;DHT22;6230;52.390;10.256;2022-11-11T12:06:41;20.80;51.30
12329;DHT22;6230;52.390;10.256;2022-11-11T12:12:04;21.00;51.00
12329;DHT22;6230;52.390;10.256;2022-11-11T12:14:42;21.10;50.80
12329;DHT22;6230;52.390;10.256;2022-11-11T12:17:31;21.20;50.80
12329;DHT22;6230;52.390;10.256;2022-11-11T12:25:56;21.40;49.70
12329;DHT22;6230;52.390;10.256;2022-11-11T12:30:55;21.50;50.30
12329;DHT22;6230;52.390;10.256;2022-11-11T12:38:57;21.80;48.90
12329;DHT22;6230;52.390;10.256;2022-11-11T12:41:47;21.80;48.60
12329;DHT22;6230;52.390;10.256;2022-11-11T12:44:16;21.80;48.50
12329;DHT22;6230;52.390;10.256;2022-11-11T12:52:39;21.50;48.40
12329;DHT22;6230;52.390;10.256;2022-11-11T12:55:27;21.30;48.40
12329;DHT22;6230;52.390;10.256;2022-11-11T13:00:24;20.70;48.90
12329;DHT22;6230;52.390;10.256;2022-11-11T13:03:18;20.60;49.20
12329;DHT22;6230;52.390;10.256;2022-11-11T13:06:12;20.60;49.10
12329;DHT22;6230;52.390;10.256;2022-11-11T13:12:00;20.80;49.20
12329;DHT22;6230;52.390;10.256;2022-11-11T13:17:10;21.10;48.70
12329;DHT22;6230;52.390;10.256;2022-11-11T13:19:56;21.30;48.90
12329;DHT22;6230;52.390;10.256;2022-11-11T13:22:26;21.50;48.70
12329;DHT22;6230;52.390;10.256;2022-11-11T13:24:53;21.50;48.20
12329;DHT22;6230;52.390;10.256;2022-11-11T13:30:13;21.70;47.70
12329;DHT22;6230;52.390;10.256;2022-11-11T13:32:54;21.80;47.80
12329;DHT22;6230;52.390;10.256;2022-11-11T13:35:28;21.90;47.50
12329;DHT22;6230;52.390;10.256;2022-11-11T13:37:55;22.00;47.30
12329;DHT22;6230;52.390;10.256;2022-11-11T13:40:39;22.00;47.20
12329;DHT22;6230;52.390;10.256;2022-11-11T13:43:27;22.10;46.70
12329;DHT22;6230;52.390;10.256;2022-11-11T13:45:55;22.20;46.80
12329;DHT22;6230;52.390;10.256;2022-11-11T13:48:28;22.20;47.20
12329;DHT22;6230;52.390;10.256;2022-11-11T13:51:20;22.20;46.90
12329;DHT22;6230;52.390;10.256;2022-11-11T13:53:47;22.10;46.80
12329;DHT22;6230;52.390;10.256;2022-11-11T13:56:22;21.90;47.30
12329;DHT22;6230;52.390;10.256;2022-11-11T13:58:49;21.70;47.20
12329;DHT22;6230;52.390;10.256;2022-11-11T14:01:15;21.40;47.40
12329;DHT22;6230;52.390;10.256;2022-11-11T14:13:51;20.10;48.30
12329;DHT22;6230;52.390;10.256;2022-11-11T14:22:00;19.70;48.80
12329;DHT22;6230;52.390;10.256;2022-11-11T14:24:42;19.50;49.60
12329;DHT22;6230;52.390;10.256;2022-11-11T14:29:37;19.30;49.30
12329;DHT22;6230;52.390;10.256;2022-11-11T14:35:28;19.20;49.40
12329;DHT22;6230;52.390;10.256;2022-11-11T14:38:13;19.10;49.50
12329;DHT22;6230;52.390;10.256;2022-11-11T14:40:42;19.00;49.60
12329;DHT22;6230;52.390;10.256;2022-11-11T14:43:38;18.90;49.70
12329;DHT22;6230;52.390;10.256;2022-11-11T14:46:07;18.90;49.80
12329;DHT22;6230;52.390;10.256;2022-11-11T14:48:52;18.80;49.90
12329;DHT22;6230;52.390;10.256;2022-11-11T14:51:46;18.80;49.90
12329;DHT22;6230;52.390;10.256;2022-11-11T14:54:21;18.70;50.00
12329;DHT22;6230;52.390;10.256;2022-11-11T14:56:59;18.70;50.10
12329;DHT22;6230;52.390;10.256;2022-11-11T14:59:27;18.60;50.10
12329;DHT22;6230;52.390;10.256;2022-11-11T15:01:54;18.60;50.20
12329;DHT22;6230;52.390;10.256;2022-11-11T15:04:20;18.50;50.30
12329;DHT22;6230;52.390;10.256;2022-11-11T15:06:59;18.50;50.30
12329;DHT22;6230;52.390;10.256;2022-11-11T15:15:14;18.30;50.50
12329;DHT22;6230;52.390;10.256;2022-11-11T15:20:52;18.20;50.50
12329;DHT22;6230;52.390;10.256;2022-11-11T15:26:27;18.00;50.70
12329;DHT22;6230;52.390;10.256;2022-11-11T15:29:14;18.00;50.70
12329;DHT22;6230;52.390;10.256;2022-11-11T15:34:22;17.90;50.90
12329;DHT22;6230;52.390;10.256;2022-11-11T15:37:01;17.80;51.00
12329;DHT22;6230;52.390;10.256;2022-11-11T15:42:34;17.70;51.20
12329;DHT22;6230;52.390;10.256;2022-11-11T15:45:11;17.60;51.30
12329;DHT22;6230;52.390;10.256;2022-11-11T15:47:39;17.50;51.40
12329;DHT22;6230;52.390;10.256;2022-11-11T15:50:26;17.40;51.40
12329;DHT22;6230;52.390;10.256;2022-11-11T15:52:58;17.40;51.50
12329;DHT22;6230;52.390;10.256;2022-11-11T15:55:29;17.30;51.50
12329;DHT22;6230;52.390;10.256;2022-11-11T16:00:39;17.20;51.70
12329;DHT22;6230;52.390;10.256;2022-11-11T16:03:19;17.20;51.70
12329;DHT22;6230;52.390;10.256;2022-11-11T16:05:45;17.10;51.80
12329;DHT22;6230;52.390;10.256;2022-11-11T16:08:15;17.10;51.90
12329;DHT22;6230;52.390;10.256;2022-11-11T16:10:44;17.00;52.10
12329;DHT22;6230;52.390;10.256;2022-11-11T16:13:21;17.00;52.20
12329;DHT22;6230;52.390;10.256;2022-11-11T16:15:55;16.90;52.40
12329;DHT22;6230;52.390;10.256;2022-11-11T16:18:25;16.80;52.50
12329;DHT22;6230;52.390;10.256;2022-11-11T16:21:06;16.80;52.70
12329;DHT22;6230;52.390;10.256;2022-11-11T16:23:34;16.80;52.90
12329;DHT22;6230;52.390;10.256;2022-11-11T16:26:01;16.70;52.90
12329;DHT22;6230;52.390;10.256;2022-11-11T16:28:36;16.70;53.10
12329;DHT22;6230;52.390;10.256;2022-11-11T16:31:35;16.70;53.20
12329;DHT22;6230;52.390;10.256;2022-11-11T16:37:06;16.60;53.50
12329;DHT22;6230;52.390;10.256;2022-11-11T16:39:33;16.60;53.50
12329;DHT22;6230;52.390;10.256;2022-11-11T16:42:04;16.50;53.50
12329;DHT22;6230;52.390;10.256;2022-11-11T16:44:37;16.50;53.60
12329;DHT22;6230;52.390;10.256;2022-11-11T16:47:05;16.40;53.70
12329;DHT22;6230;52.390;10.256;2022-11-11T16:49:38;16.40;53.80
12329;DHT22;6230;52.390;10.256;2022-11-11T16:52:15;16.30;53.90
12329;DHT22;6230;52.390;10.256;2022-11-11T16:54:51;16.30;54.10
12329;DHT22;6230;52.390;10.256;2022-11-11T16:57:21;16.20;54.10
12329;DHT22;6230;52.390;10.256;2022-11-11T16:59:51;16.20;54.20
12329;DHT22;6230;52.390;10.256;2022-11-11T17:02:20;16.10;54.40
12329;DHT22;6230;52.390;10.256;2022-11-11T17:07:32;15.90;54.70
12329;DHT22;6230;52.390;10.256;2022-11-11T17:10:12;15.90;55.10
12329;DHT22;6230;52.390;10.256;2022-11-11T17:12:38;15.80;55.20
12329;DHT22;6230;52.390;10.256;2022-11-11T17:15:10;15.70;55.30
12329;DHT22;6230;52.390;10.256;2022-11-11T17:17:37;15.60;55.40
12329;DHT22;6230;52.390;10.256;2022-11-11T17:22:35;15.50;55.80
12329;DHT22;6230;52.390;10.256;2022-11-11T17:25:00;15.50;55.90
12329;DHT22;6230;52.390;10.256;2022-11-11T17:27:29;15.40;56.00
12329;DHT22;6230;52.390;10.256;2022-11-11T17:29:55;15.40;56.10
12329;DHT22;6230;52.390;10.256;2022-11-11T17:32:21;15.30;56.10
12329;DHT22;6230;52.390;10.256;2022-11-11T17:34:46;15.30;56.20
12329;DHT22;6230;52.390;10.256;2022-11-11T17:37:12;15.30;56.20
12329;DHT22;6230;52.390;10.256;2022-11-11T17:39:38;15.20;56.30
12329;DHT22;6230;52.390;10.256;2022-11-11T17:42:07;15.20;56.40
12329;DHT22;6230;52.390;10.256;2022-11-11T17:44:33;15.20;56.40
12329;DHT22;6230;52.390;10.256;2022-11-11T17:46:58;15.10;56.40
12329;DHT22;6230;52.390;10.256;2022-11-11T17:49:24;15.10;57.20
12329;DHT22;6230;52.390;10.256;2022-11-11T17:51:49;15.10;56.60
12329;DHT22;6230;52.390;10.256;2022-11-11T17:54:15;15.00;56.60
12329;DHT22;6230;52.390;10.256;2022-11-11T17:56:40;15.00;56.70